Time;durP1;ratioP1;P1;durP2;ratioP2;P2;SDS_P1;SDS_P2;PMS_P1;PMS_P2;Temp;Humidity;BMP_temperature;BMP_pressure;BME280_temperature;BME280_humidity;BME280_pressure;Samples;Min_cycle;Max_cycle;Signal;HPM_P1;HPM_P2
2024/02/02 00:01:12;;;;;;;12.73;5.95;;;8.40;99.90;;;;;;4917424;29;20304;-76
2024/02/02 00:03:39;;;;;;;17.02;5.22;;;8.40;99.90;;;;;;4916811;29;20236;-75
2024/02/02 00:06:08;;;;;;;21.08;5.20;;;8.40;99.90;;;;;;4916617;29;20240;-78
2024/02/02 00:08:35;;;;;;;13.70;5.15;;;8.40;99.90;;;;;;4915970;29;20304;-77
2024/02/02 00:11:04;;;;;;;7.57;3.33;;;8.40;99.90;;;;;;4917101;29;20244;-77
2024/02/02 00:13:31;;;;;;;18.92;4.35;;;8.40;99.90;;;;;;4916807;29;20308;-78
2024/02/02 00:15:58;;;;;;;12.23;4.60;;;8.40;99.90;;;;;;4916303;29;20233;-78
2024/02/02 00:18:25;;;;;;;18.83;4.65;;;8.40;99.90;;;;;;4917334;29;20240;-78
2024/02/02 00:20:54;;;;;;;14.80;5.13;;;8.40;99.90;;;;;;4917313;29;20243;-78
2024/02/02 00:23:21;;;;;;;14.40;5.63;;;8.30;99.90;;;;;;4900815;29;20238;-78
2024/02/02 00:25:48;;;;;;;16.27;3.70;;;8.40;99.90;;;;;;4915725;29;20235;-78
2024/02/02 00:28:16;;;;;;;11.00;4.75;;;8.30;99.90;;;;;;4917440;29;20285;-78
2024/02/02 00:30:43;;;;;;;13.90;5.55;;;8.20;99.90;;;;;;4912798;29;20226;-79
2024/02/02 00:33:10;;;;;;;15.35;4.50;;;8.20;99.90;;;;;;4919425;29;20245;-79
2024/02/02 00:35:37;;;;;;;14.63;6.68;;;8.20;99.90;;;;;;4920600;29;20233;-79
2024/02/02 00:38:05;;;;;;;15.40;5.18;;;8.20;99.90;;;;;;4919357;29;20234;-79
2024/02/02 00:40:32;;;;;;;10.07;3.38;;;8.20;99.90;;;;;;4918843;29;20687;-79
2024/02/02 00:43:01;;;;;;;16.65;4.88;;;8.20;99.90;;;;;;4906870;29;20234;-78
2024/02/02 00:45:30;;;;;;;10.65;4.35;;;8.20;99.90;;;;;;4918290;29;20316;-78
2024/02/02 00:47:56;;;;;;;10.25;3.50;;;8.10;99.90;;;;;;4916858;29;20313;-76
2024/02/02 00:50:23;;;;;;;10.13;4.03;;;8.10;99.90;;;;;;4916136;29;20229;-78
2024/02/02 00:52:51;;;;;;;15.38;4.85;;;8.10;99.90;;;;;;4916748;29;20664;-78
2024/02/02 00:55:17;;;;;;;11.85;3.65;;;8.10;99.90;;;;;;4916157;29;20289;-76
2024/02/02 00:57:44;;;;;;;15.75;4.55;;;8.10;99.90;;;;;;4916422;29;20233;-78
2024/02/02 01:00:14;;;;;;;15.30;3.90;;;8.20;99.90;;;;;;4915453;29;20222;-78
2024/02/02 01:02:42;;;;;;;13.02;4.20;;;8.10;99.90;;;;;;4916226;29;20237;-78
2024/02/02 01:05:09;;;;;;;11.63;4.65;;;8.20;99.90;;;;;;4916001;29;20233;-76
2024/02/02 01:07:36;;;;;;;11.70;4.57;;;8.20;99.90;;;;;;4916641;29;20243;-76
2024/02/02 01:10:05;;;;;;;13.60;4.68;;;8.20;99.90;;;;;;4917737;29;20229;-76
2024/02/02 01:12:33;;;;;;;19.25;3.63;;;8.20;99.90;;;;;;4919409;29;20244;-76
2024/02/02 01:15:01;;;;;;;14.23;5.05;;;8.20;99.90;;;;;;4920408;29;20229;-78
2024/02/02 01:17:28;;;;;;;16.40;6.70;;;8.20;99.90;;;;;;4919264;29;21735;-76
2024/02/02 01:20:01;;;;;;;11.45;4.78;;;8.20;99.90;;;;;;4919989;29;20713;-76
2024/02/02 01:22:29;;;;;;;13.75;5.13;;;8.10;99.90;;;;;;4911286;29;20241;-76
2024/02/02 01:24:55;;;;;;;20.73;4.55;;;8.10;99.90;;;;;;4919625;29;20237;-76
2024/02/02 01:27:23;;;;;;;14.73;4.90;;;8.20;99.90;;;;;;4906006;29;20321;-76
2024/02/02 01:29:50;;;;;;;12.90;5.82;;;8.20;99.90;;;;;;4904455;29;20221;-78
2024/02/02 01:32:17;;;;;;;14.27;3.95;;;8.20;99.90;;;;;;4918863;29;20233;-76
2024/02/02 01:34:44;;;;;;;9.75;4.00;;;8.20;99.90;;;;;;4919865;29;20256;-76
2024/02/02 01:37:12;;;;;;;10.57;4.75;;;8.20;99.90;;;;;;4919209;29;20320;-76
2024/02/02 01:39:39;;;;;;;17.08;5.05;;;8.20;99.90;;;;;;4919677;29;20225;-76
2024/02/02 01:42:06;;;;;;;12.88;4.63;;;8.20;99.90;;;;;;4919508;29;20248;-78
2024/02/02 01:44:33;;;;;;;14.68;5.20;;;8.30;99.90;;;;;;4918959;29;20304;-78
2024/02/02 01:47:02;;;;;;;12.50;5.03;;;8.20;99.90;;;;;;4919588;29;20256;-76
2024/02/02 01:49:29;;;;;;;14.18;6.43;;;8.20;99.90;;;;;;4918741;29;20229;-78
2024/02/02 01:51:57;;;;;;;14.55;5.03;;;8.20;99.90;;;;;;4919198;29;20225;-76
2024/02/02 01:54:25;;;;;;;12.43;6.95;;;8.20;99.90;;;;;;4919242;29;20228;-76
2024/02/02 01:56:52;;;;;;;11.70;6.43;;;8.20;99.90;;;;;;4918458;29;20233;-76
2024/02/02 01:59:19;;;;;;;21.23;8.05;;;8.20;99.90;;;;;;4918430;29;20241;-76
2024/02/02 02:01:47;;;;;;;18.60;5.85;;;8.20;99.90;;;;;;4917180;29;20256;-76
2024/02/02 02:04:18;;;;;;;9.57;4.15;;;8.20;99.90;;;;;;4917996;29;20226;-77
2024/02/02 02:06:45;;;;;;;15.70;7.63;;;8.30;99.90;;;;;;4918443;29;20229;-78
2024/02/02 02:09:16;;;;;;;11.02;5.32;;;8.20;99.90;;;;;;4919008;29;20229;-78
2024/02/02 02:11:45;;;;;;;17.08;5.35;;;8.30;99.90;;;;;;4918934;29;20233;-76
2024/02/02 02:14:13;;;;;;;14.50;4.32;;;8.30;99.90;;;;;;4918687;29;20229;-76
2024/02/02 02:16:40;;;;;;;19.65;6.60;;;8.20;99.90;;;;;;4918573;29;20595;-79
2024/02/02 02:19:13;;;;;;;19.17;5.55;;;8.20;99.90;;;;;;4918993;29;20233;-78
2024/02/02 02:21:41;;;;;;;9.10;4.30;;;8.30;99.90;;;;;;4917837;29;20691;-76
2024/02/02 02:24:09;;;;;;;11.18;5.82;;;8.30;99.90;;;;;;4918775;29;20241;-76
2024/02/02 02:26:38;;;;;;;13.13;5.78;;;8.20;99.90;;;;;;4907994;29;20244;-78
2024/02/02 02:29:05;;;;;;;15.02;4.80;;;8.20;99.90;;;;;;4920132;29;20233;-76
2024/02/02 02:31:33;;;;;;;15.82;4.88;;;8.20;99.90;;;;;;4935289;29;20232;-78
2024/02/02 02:34:00;;;;;;;14.15;5.97;;;8.10;99.90;;;;;;4937524;29;20229;-78
2024/02/02 02:36:30;;;;;;;8.80;4.97;;;8.20;99.90;;;;;;4936881;29;20235;-79
2024/02/02 02:38:58;;;;;;;19.15;4.57;;;8.20;99.90;;;;;;4936865;29;20826;-78
2024/02/02 02:41:26;;;;;;;13.20;5.00;;;8.20;99.90;;;;;;4936820;29;20229;-78
2024/02/02 02:43:53;;;;;;;11.63;4.38;;;8.30;99.90;;;;;;4937232;29;20225;-78
2024/02/02 02:46:20;;;;;;;15.88;5.00;;;8.30;99.90;;;;;;4937520;29;20236;-76
2024/02/02 02:48:47;;;;;;;17.13;5.80;;;8.30;99.90;;;;;;4937170;29;20220;-78
2024/02/02 02:51:14;;;;;;;18.90;6.65;;;8.30;99.90;;;;;;4937427;29;20228;-78
2024/02/02 02:53:41;;;;;;;9.75;4.68;;;8.30;99.90;;;;;;4936172;29;20225;-76
2024/02/02 02:56:11;;;;;;;8.82;4.05;;;8.40;99.90;;;;;;4930915;29;20565;-76
2024/02/02 02:58:38;;;;;;;18.05;5.85;;;8.40;99.90;;;;;;4917957;29;20296;-76
2024/02/02 03:01:05;;;;;;;8.57;5.70;;;8.40;99.90;;;;;;4918284;29;20235;-78
2024/02/02 03:03:32;;;;;;;15.13;4.72;;;8.40;99.90;;;;;;4917728;29;20583;-78
2024/02/02 03:05:59;;;;;;;14.80;4.50;;;8.40;99.90;;;;;;4916611;29;20225;-78
2024/02/02 03:08:26;;;;;;;13.35;4.20;;;8.40;99.90;;;;;;4918375;29;20225;-79
2024/02/02 03:10:54;;;;;;;13.50;5.05;;;8.50;99.90;;;;;;4920539;29;20222;-74
2024/02/02 03:13:24;;;;;;;10.57;4.20;;;8.50;99.90;;;;;;4920883;29;20240;-77
2024/02/02 03:15:51;;;;;;;17.83;5.57;;;8.50;99.90;;;;;;4918807;29;20225;-77
2024/02/02 03:18:18;;;;;;;25.25;10.07;;;8.50;99.90;;;;;;4918774;29;20312;-77
2024/02/02 03:20:45;;;;;;;12.65;5.93;;;8.50;99.90;;;;;;4917510;29;20626;-76
2024/02/02 03:23:12;;;;;;;24.20;5.30;;;8.50;99.90;;;;;;4917578;29;20229;-77
2024/02/02 03:25:39;;;;;;;16.33;5.00;;;8.50;99.90;;;;;;4917277;29;20225;-76
2024/02/02 03:28:06;;;;;;;11.90;4.90;;;8.50;99.90;;;;;;4917582;29;20221;-76
2024/02/02 03:30:35;;;;;;;16.00;5.32;;;8.50;99.90;;;;;;4925920;29;20229;-76
2024/02/02 03:33:02;;;;;;;11.40;5.68;;;8.50;99.90;;;;;;4936018;29;20232;-77
2024/02/02 03:35:29;;;;;;;16.33;5.97;;;8.40;99.90;;;;;;4935511;29;20344;-77
2024/02/02 03:37:56;;;;;;;14.10;4.80;;;8.40;99.90;;;;;;4936489;29;20228;-77
2024/02/02 03:40:23;;;;;;;14.52;4.97;;;8.40;99.90;;;;;;4936606;29;20239;-75
2024/02/02 03:42:50;;;;;;;10.85;5.45;;;8.40;99.90;;;;;;4936063;29;20236;-75
2024/02/02 03:45:17;;;;;;;14.38;6.18;;;8.30;99.90;;;;;;4936514;29;20233;-75
2024/02/02 03:47:45;;;;;;;16.15;5.43;;;8.30;99.90;;;;;;4935889;29;20320;-75
2024/02/02 03:50:13;;;;;;;20.75;6.07;;;8.30;99.90;;;;;;4936078;29;20225;-75
2024/02/02 03:52:40;;;;;;;21.15;7.95;;;8.30;99.90;;;;;;4936019;29;20239;-77
2024/02/02 03:55:09;;;;;;;12.85;6.40;;;8.30;99.90;;;;;;4936305;29;20235;-77
2024/02/02 03:57:40;;;;;;;14.65;6.72;;;8.30;99.90;;;;;;4935168;29;20295;-77
2024/02/02 04:00:09;;;;;;;13.68;7.30;;;8.30;99.90;;;;;;4936143;29;20698;-77
2024/02/02 04:02:36;;;;;;;17.10;11.00;;;8.30;99.90;;;;;;4935080;29;20248;-77
2024/02/02 04:05:06;;;;;;;17.10;8.52;;;8.40;99.90;;;;;;4936061;29;20714;-75
2024/02/02 04:07:33;;;;;;;19.00;8.40;;;8.40;99.90;;;;;;4935553;29;20894;-76
2024/02/02 04:10:00;;;;;;;15.93;7.45;;;8.40;99.90;;;;;;4936052;29;20239;-77
2024/02/02 04:12:27;;;;;;;12.52;6.28;;;8.40;99.90;;;;;;4933208;29;20617;-75
2024/02/02 04:14:54;;;;;;;15.85;6.70;;;8.50;99.90;;;;;;4934949;29;20224;-77
2024/02/02 04:17:21;;;;;;;12.20;6.50;;;8.50;99.90;;;;;;4936131;29;20229;-77
2024/02/02 04:19:48;;;;;;;15.80;5.72;;;8.50;99.90;;;;;;4934837;29;20232;-75
2024/02/02 04:22:19;;;;;;;16.23;6.70;;;8.50;99.90;;;;;;4936482;29;20308;-77
2024/02/02 04:24:46;;;;;;;16.85;8.00;;;8.50;99.90;;;;;;4934801;29;20247;-75
2024/02/02 04:27:13;;;;;;;17.17;5.95;;;8.50;99.90;;;;;;4935946;29;20672;-75
2024/02/02 04:29:40;;;;;;;19.60;7.93;;;8.60;99.90;;;;;;4935449;29;20220;-76
2024/02/02 04:32:08;;;;;;;13.18;8.38;;;8.50;99.90;;;;;;4935861;29;20221;-77
2024/02/02 04:34:35;;;;;;;12.98;5.00;;;8.50;99.90;;;;;;4936191;29;20228;-75
2024/02/02 04:37:02;;;;;;;18.23;7.15;;;8.50;99.90;;;;;;4935646;29;20624;-75
2024/02/02 04:39:30;;;;;;;15.35;6.60;;;8.50;99.90;;;;;;4935834;29;20229;-75
2024/02/02 04:41:58;;;;;;;14.55;7.38;;;8.60;99.90;;;;;;4935058;29;20299;-75
2024/02/02 04:44:26;;;;;;;12.18;6.13;;;8.50;99.90;;;;;;4936080;29;20447;-77
2024/02/02 04:46:53;;;;;;;12.00;6.10;;;8.50;99.90;;;;;;4948108;29;20303;-75
2024/02/02 04:49:20;;;;;;;16.65;5.72;;;8.50;99.90;;;;;;4951192;29;20224;-77
2024/02/02 04:51:47;;;;;;;19.75;6.15;;;8.40;99.90;;;;;;4947919;29;20256;-75
2024/02/02 04:54:14;;;;;;;14.68;5.68;;;8.40;99.90;;;;;;4945354;29;20311;-77
2024/02/02 04:56:42;;;;;;;17.30;6.40;;;8.40;99.90;;;;;;4949034;29;20233;-77
2024/02/02 04:59:09;;;;;;;12.98;6.30;;;8.30;99.90;;;;;;4954189;29;20260;-76
2024/02/02 05:01:36;;;;;;;13.82;5.95;;;8.30;99.90;;;;;;4947037;29;20660;-75
2024/02/02 05:04:03;;;;;;;16.25;5.70;;;8.30;99.90;;;;;;4939340;29;20229;-74
2024/02/02 05:06:30;;;;;;;17.60;5.85;;;8.30;99.90;;;;;;4940559;29;20225;-75
2024/02/02 05:08:58;;;;;;;13.13;5.88;;;8.30;99.90;;;;;;4939857;29;20251;-75
2024/02/02 05:11:27;;;;;;;10.43;6.18;;;8.30;99.90;;;;;;4940452;29;20303;-75
2024/02/02 05:13:56;;;;;;;13.10;6.25;;;8.40;99.90;;;;;;4939120;29;20312;-75
2024/02/02 05:16:23;;;;;;;17.08;6.70;;;8.40;99.90;;;;;;4939536;29;20239;-75
2024/02/02 05:18:50;;;;;;;19.08;6.30;;;8.40;99.90;;;;;;4939083;29;20236;-75
2024/02/02 05:21:18;;;;;;;16.00;6.50;;;8.40;99.90;;;;;;4939522;29;20232;-75
2024/02/02 05:23:45;;;;;;;9.82;5.40;;;8.40;99.90;;;;;;4939307;29;20326;-76
2024/02/02 05:26:12;;;;;;;12.60;5.50;;;8.40;99.90;;;;;;4939107;29;20228;-75
2024/02/02 05:28:40;;;;;;;16.38;5.38;;;8.30;99.90;;;;;;4939291;29;20552;-75
2024/02/02 05:31:11;;;;;;;10.65;5.32;;;8.40;99.90;;;;;;4934285;29;20225;-76
2024/02/02 05:33:38;;;;;;;8.75;6.28;;;8.30;99.90;;;;;;4939059;29;20615;-75
2024/02/02 05:36:06;;;;;;;19.45;6.30;;;8.30;99.90;;;;;;4938834;29;20673;-74
2024/02/02 05:38:33;;;;;;;13.50;5.57;;;8.30;99.90;;;;;;4939197;29;20251;-74
2024/02/02 05:41:00;;;;;;;10.50;5.20;;;8.30;99.90;;;;;;4938133;29;20228;-75
2024/02/02 05:43:27;;;;;;;13.48;6.13;;;8.30;99.90;;;;;;4939590;29;20257;-76
2024/02/02 05:45:54;;;;;;;14.68;5.03;;;8.30;99.90;;;;;;4938822;29;20233;-75
2024/02/02 05:48:22;;;;;;;11.80;5.28;;;8.30;99.90;;;;;;4939177;29;20225;-75
2024/02/02 05:50:49;;;;;;;19.02;6.47;;;8.30;99.90;;;;;;4940005;29;20263;-75
2024/02/02 05:53:16;;;;;;;18.75;6.43;;;8.30;99.90;;;;;;4938989;29;20312;-77
2024/02/02 05:55:43;;;;;;;12.50;6.03;;;8.30;99.90;;;;;;4938433;29;20262;-77
2024/02/02 05:58:10;;;;;;;9.57;4.72;;;8.30;99.90;;;;;;4937203;29;20647;-75
2024/02/02 06:00:37;;;;;;;7.38;4.95;;;8.40;99.90;;;;;;4938225;29;20333;-75
2024/02/02 06:03:05;;;;;;;11.30;5.50;;;8.40;99.90;;;;;;4937560;29;20725;-75
2024/02/02 06:05:34;;;;;;;16.23;6.13;;;8.40;99.90;;;;;;4937822;29;20316;-75
2024/02/02 06:08:02;;;;;;;20.52;8.35;;;8.50;99.90;;;;;;4937578;29;20221;-77
2024/02/02 06:10:29;;;;;;;14.07;7.55;;;8.50;99.90;;;;;;4938724;29;20280;-77
2024/02/02 06:12:56;;;;;;;10.38;5.70;;;8.50;99.90;;;;;;4937608;29;20237;-75
2024/02/02 06:15:23;;;;;;;13.95;6.32;;;8.50;99.90;;;;;;4937849;29;20284;-75
2024/02/02 06:17:50;;;;;;;11.82;5.10;;;8.50;99.90;;;;;;4937679;29;20224;-77
2024/02/02 06:20:17;;;;;;;22.00;6.57;;;8.60;99.90;;;;;;4937942;29;20220;-76
2024/02/02 06:22:46;;;;;;;13.38;5.45;;;8.60;99.90;;;;;;4938850;29;20236;-76
2024/02/02 06:25:13;;;;;;;15.07;4.65;;;8.60;99.90;;;;;;4938202;29;20243;-75
2024/02/02 06:27:40;;;;;;;7.10;5.13;;;8.60;99.90;;;;;;4938184;29;20228;-75
2024/02/02 06:30:08;;;;;;;17.05;6.20;;;8.60;99.90;;;;;;4938188;29;20313;-75
2024/02/02 06:32:38;;;;;;;14.65;5.75;;;8.60;99.90;;;;;;4938535;29;20316;-77
2024/02/02 06:35:06;;;;;;;23.63;6.85;;;8.60;99.90;;;;;;4937968;29;20240;-77
2024/02/02 06:37:40;;;;;;;17.73;5.78;;;8.60;99.90;;;;;;4938892;29;20252;-74
2024/02/02 06:40:10;;;;;;;12.00;5.80;;;8.60;99.90;;;;;;4937989;29;20664;-75
2024/02/02 06:42:38;;;;;;;16.27;6.72;;;8.60;99.90;;;;;;4937717;29;20567;-75
2024/02/02 06:45:08;;;;;;;12.57;4.85;;;8.60;99.90;;;;;;4937110;29;20236;-75
2024/02/02 06:47:40;;;;;;;15.73;6.43;;;8.60;99.90;;;;;;4937970;29;20228;-77
2024/02/02 06:50:08;;;;;;;9.05;5.60;;;8.60;99.90;;;;;;4927778;29;20235;-75
2024/02/02 06:52:38;;;;;;;15.32;7.25;;;8.70;99.90;;;;;;4938198;29;20264;-75
2024/02/02 06:55:06;;;;;;;17.45;6.07;;;8.70;99.90;;;;;;4937364;29;20311;-75
2024/02/02 06:58:02;;;;;;;14.10;5.43;;;8.70;99.90;;;;;;4936772;29;20855;-74
2024/02/02 07:00:32;;;;;;;17.40;6.18;;;8.80;99.90;;;;;;4919990;29;20228;-75
2024/02/02 07:02:59;;;;;;;11.60;5.88;;;8.70;99.90;;;;;;4937376;29;20565;-77
2024/02/02 07:05:26;;;;;;;12.85;5.45;;;8.70;99.90;;;;;;4936303;29;20303;-74
2024/02/02 07:07:53;;;;;;;12.90;6.40;;;8.80;99.90;;;;;;4937245;29;20224;-75
2024/02/02 07:10:22;;;;;;;9.85;5.85;;;8.80;99.90;;;;;;4936461;29;20239;-75
2024/02/02 07:12:59;;;;;;;18.15;7.22;;;8.80;99.90;;;;;;4937961;29;20559;-77
2024/02/02 07:15:30;;;;;;;14.60;8.45;;;8.80;99.90;;;;;;4937531;29;20240;-77
2024/02/02 07:17:58;;;;;;;22.33;9.18;;;8.80;99.90;;;;;;4937873;29;20228;-77
2024/02/02 07:20:54;;;;;;;10.85;6.63;;;8.80;99.90;;;;;;4937588;29;20307;-76
2024/02/02 07:23:33;;;;;;;16.27;6.63;;;8.80;99.90;;;;;;4937136;29;20702;-78
2024/02/02 07:26:01;;;;;;;15.93;5.65;;;8.80;99.90;;;;;;4937655;29;20304;-77
2024/02/02 07:28:35;;;;;;;8.23;5.68;;;8.80;99.90;;;;;;4936751;29;20224;-75
2024/02/02 07:31:04;;;;;;;17.73;10.95;;;8.80;99.90;;;;;;4936846;29;20224;-75
2024/02/02 07:33:38;;;;;;;13.10;7.00;;;8.80;99.90;;;;;;4936492;29;20311;-75
2024/02/02 07:36:08;;;;;;;12.00;6.50;;;8.90;99.90;;;;;;4936625;29;20312;-75
2024/02/02 07:38:52;;;;;;;20.77;11.85;;;8.90;99.90;;;;;;4936543;29;20291;-77
2024/02/02 07:41:22;;;;;;;14.02;6.47;;;8.90;99.90;;;;;;4936474;29;20228;-77
2024/02/02 07:43:49;;;;;;;12.52;6.05;;;8.90;99.90;;;;;;4937698;29;20236;-75
2024/02/02 07:46:18;;;;;;;13.63;5.32;;;8.90;99.90;;;;;;4936880;29;20316;-76
2024/02/02 07:48:48;;;;;;;11.40;5.68;;;9.00;99.90;;;;;;4938617;29;20299;-77
2024/02/02 07:51:17;;;;;;;11.07;4.95;;;9.00;99.90;;;;;;4936828;29;20224;-75
2024/02/02 07:53:48;;;;;;;15.80;5.65;;;9.00;99.90;;;;;;4937653;29;20256;-74
2024/02/02 07:56:17;;;;;;;10.25;6.63;;;9.00;99.90;;;;;;4924349;29;20237;-77
2024/02/02 07:58:44;;;;;;;7.88;4.63;;;9.00;99.90;;;;;;4935907;29;20225;-74
2024/02/02 08:01:12;;;;;;;18.23;5.90;;;9.10;99.90;;;;;;4936946;29;20251;-77
2024/02/02 08:03:40;;;;;;;15.30;6.03;;;9.10;99.90;;;;;;4935934;29;20236;-75
2024/02/02 08:06:08;;;;;;;10.85;6.05;;;9.00;99.90;;;;;;4937099;29;20228;-76
2024/02/02 08:08:36;;;;;;;16.58;5.90;;;9.00;99.90;;;;;;4935839;29;20237;-75
2024/02/02 08:11:04;;;;;;;8.35;4.80;;;9.00;99.90;;;;;;4937051;29;20224;-75
2024/02/02 08:13:31;;;;;;;13.93;5.55;;;9.10;99.90;;;;;;4935943;29;20244;-76
2024/02/02 08:15:59;;;;;;;10.10;5.10;;;9.10;99.90;;;;;;4936774;29;20625;-76
2024/02/02 08:18:26;;;;;;;10.75;6.22;;;9.00;99.90;;;;;;4937414;29;20243;-75
2024/02/02 08:20:54;;;;;;;13.55;7.18;;;9.10;99.90;;;;;;4942706;29;20255;-77
2024/02/02 08:23:21;;;;;;;12.48;5.50;;;9.10;99.90;;;;;;4944591;29;20743;-76
2024/02/02 08:25:49;;;;;;;14.32;5.35;;;9.10;99.90;;;;;;4947811;29;20220;-76
2024/02/02 08:28:16;;;;;;;13.73;5.53;;;9.10;99.90;;;;;;4946077;29;20228;-77
2024/02/02 08:30:43;;;;;;;10.27;5.80;;;9.10;99.90;;;;;;4943809;29;20236;-77
2024/02/02 08:33:10;;;;;;;19.15;8.95;;;9.10;99.90;;;;;;4943129;29;20233;-76
2024/02/02 08:35:37;;;;;;;17.30;7.50;;;9.10;99.90;;;;;;4942084;29;20220;-78
2024/02/02 08:38:07;;;;;;;13.15;7.03;;;9.20;99.90;;;;;;4943138;29;20216;-77
2024/02/02 08:40:40;;;;;;;10.02;5.00;;;9.20;99.90;;;;;;4942587;29;20220;-76
2024/02/02 08:43:11;;;;;;;14.02;5.75;;;9.30;99.90;;;;;;4942698;29;20228;-76
2024/02/02 08:46:09;;;;;;;10.57;5.45;;;9.30;99.90;;;;;;4941828;29;20279;-77
2024/02/02 08:48:39;;;;;;;13.30;6.15;;;9.30;99.90;;;;;;4941899;29;20233;-77
2024/02/02 08:51:52;;;;;;;14.27;6.50;;;9.30;99.90;;;;;;4942601;29;20232;-78
2024/02/02 08:54:39;;;;;;;10.98;5.20;;;9.30;99.90;;;;;;4941712;29;20307;-77
2024/02/02 08:57:32;;;;;;;10.18;5.47;;;9.40;99.90;;;;;;4942236;29;20235;-78
2024/02/02 09:00:04;;;;;;;18.17;6.80;;;9.40;99.90;;;;;;4942628;29;20224;-77
2024/02/02 09:02:55;;;;;;;12.43;6.07;;;9.40;99.90;;;;;;4942496;29;20232;-77
2024/02/02 09:05:23;;;;;;;12.40;7.78;;;9.40;99.90;;;;;;4941894;29;20635;-75
2024/02/02 09:07:52;;;;;;;13.10;6.20;;;9.40;99.90;;;;;;4942266;29;20307;-77
2024/02/02 09:11:18;;;;;;;16.23;7.47;;;9.50;99.90;;;;;;4941870;29;20224;-77
2024/02/02 09:13:46;;;;;;;11.75;7.53;;;9.40;99.90;;;;;;4943190;29;20304;-77
2024/02/02 09:16:15;;;;;;;19.13;8.40;;;9.50;99.90;;;;;;4942725;29;20240;-75
2024/02/02 09:18:44;;;;;;;17.55;9.32;;;9.50;99.90;;;;;;4940731;29;20307;-75
2024/02/02 09:21:15;;;;;;;18.73;7.45;;;9.50;99.90;;;;;;4943438;29;20220;-77
2024/02/02 09:23:50;;;;;;;12.52;6.60;;;9.50;99.90;;;;;;4943114;29;20240;-77
2024/02/02 09:26:31;;;;;;;16.05;7.90;;;9.60;99.90;;;;;;4942788;29;20239;-77
2024/02/02 09:29:00;;;;;;;17.73;9.60;;;9.60;99.90;;;;;;4941898;29;20272;-78
2024/02/02 09:31:32;;;;;;;16.40;9.77;;;9.60;99.90;;;;;;4940762;29;20319;-75
2024/02/02 09:34:04;;;;;;;13.05;9.52;;;9.70;99.90;;;;;;4937820;29;20308;-75
2024/02/02 09:36:31;;;;;;;13.40;8.80;;;9.70;99.90;;;;;;4939557;29;20221;-77
2024/02/02 09:39:01;;;;;;;13.38;9.07;;;9.70;99.90;;;;;;4938926;29;20610;-77
2024/02/02 09:41:58;;;;;;;14.43;9.55;;;9.70;99.90;;;;;;4939789;29;20225;-76
2024/02/02 09:44:46;;;;;;;14.73;7.82;;;9.70;99.90;;;;;;4939487;29;20575;-77
2024/02/02 09:47:42;;;;;;;15.27;8.38;;;9.70;99.90;;;;;;4931546;29;20308;-77
2024/02/02 09:50:23;;;;;;;14.52;7.65;;;9.60;99.90;;;;;;4939154;29;20292;-77
2024/02/02 09:53:05;;;;;;;11.50;6.20;;;9.60;99.90;;;;;;4939544;29;20610;-76
2024/02/02 09:55:42;;;;;;;9.68;6.75;;;9.60;99.90;;;;;;4938734;29;20228;-78
2024/02/02 09:58:17;;;;;;;11.48;7.32;;;9.60;99.90;;;;;;4938521;29;20228;-78
2024/02/02 10:00:53;;;;;;;9.35;6.15;;;9.60;99.90;;;;;;4938744;29;20569;-78
2024/02/02 10:03:28;;;;;;;8.48;6.93;;;9.60;99.90;;;;;;4938542;29;20254;-77
2024/02/02 10:06:12;;;;;;;9.43;6.15;;;9.60;99.90;;;;;;4939207;29;20319;-78
2024/02/02 10:08:55;;;;;;;7.72;5.40;;;9.60;99.90;;;;;;4939002;29;20220;-78
2024/02/02 10:11:51;;;;;;;15.25;6.90;;;9.60;99.90;;;;;;4938865;29;20242;-78
2024/02/02 10:14:41;;;;;;;18.80;8.38;;;9.60;99.90;;;;;;4938425;29;20232;-77
2024/02/02 10:17:16;;;;;;;15.35;7.72;;;9.60;99.90;;;;;;4940855;29;20229;-77
2024/02/02 10:20:08;;;;;;;14.95;7.82;;;9.60;99.90;;;;;;4939162;29;20224;-77
2024/02/02 10:23:16;;;;;;;9.25;6.28;;;9.60;99.90;;;;;;4932800;29;20240;-77
2024/02/02 10:26:10;;;;;;;13.25;7.07;;;9.60;99.90;;;;;;4931238;29;20248;-76
2024/02/02 10:28:50;;;;;;;13.07;7.28;;;9.50;99.90;;;;;;4939329;29;20576;-77
2024/02/02 10:31:37;;;;;;;11.25;6.00;;;9.60;99.90;;;;;;4939817;29;20256;-78
2024/02/02 10:34:23;;;;;;;6.90;5.55;;;9.60;99.90;;;;;;4938519;29;20243;-77
2024/02/02 10:37:04;;;;;;;8.68;5.30;;;9.60;99.90;;;;;;4940517;29;20259;-77
2024/02/02 10:39:45;;;;;;;11.25;5.40;;;9.70;99.90;;;;;;4939018;29;20229;-75
2024/02/02 10:42:32;;;;;;;8.85;4.13;;;9.70;99.90;;;;;;4937419;29;20237;-75
2024/02/02 10:45:09;;;;;;;10.48;5.10;;;9.70;99.90;;;;;;4938618;29;20263;-75
2024/02/02 10:47:53;;;;;;;8.43;5.05;;;9.80;99.90;;;;;;4938305;29;20306;-75
2024/02/02 10:50:22;;;;;;;11.95;4.70;;;9.90;99.90;;;;;;4938222;29;20224;-76
2024/02/02 10:53:00;;;;;;;8.10;4.53;;;9.90;99.90;;;;;;4937823;29;20236;-77
2024/02/02 10:55:44;;;;;;;9.52;4.65;;;9.90;99.90;;;;;;4936925;29;20596;-77
2024/02/02 10:58:25;;;;;;;5.28;3.95;;;9.90;99.90;;;;;;4937433;29;20236;-77
2024/02/02 11:01:04;;;;;;;4.68;3.80;;;10.00;99.90;;;;;;4937569;29;20225;-77
2024/02/02 11:03:40;;;;;;;10.02;4.63;;;10.00;99.90;;;;;;4937725;29;20225;-77
2024/02/02 11:06:23;;;;;;;6.25;4.03;;;10.10;99.90;;;;;;4936936;29;20220;-77
2024/02/02 11:08:57;;;;;;;4.32;3.78;;;10.10;99.90;;;;;;4936426;29;20229;-77
2024/02/02 11:11:28;;;;;;;7.60;3.50;;;10.10;99.90;;;;;;4937253;29;20229;-77
2024/02/02 11:14:06;;;;;;;3.28;2.97;;;10.20;99.90;;;;;;4936647;29;20311;-77
2024/02/02 11:16:49;;;;;;;7.72;4.40;;;10.20;99.90;;;;;;4937054;29;20256;-75
2024/02/02 11:19:35;;;;;;;5.18;4.00;;;10.20;99.90;;;;;;4936560;29;20228;-75
2024/02/02 11:22:16;;;;;;;7.90;3.97;;;10.20;99.90;;;;;;4936090;29;20315;-77
2024/02/02 11:25:06;;;;;;;7.57;4.00;;;10.30;99.90;;;;;;4935930;29;20425;-77
2024/02/02 11:27:43;;;;;;;5.05;3.10;;;10.30;99.90;;;;;;4936146;29;20239;-78
2024/02/02 11:30:26;;;;;;;12.95;4.28;;;10.30;99.90;;;;;;4936502;29;20730;-78
2024/02/02 11:33:19;;;;;;;7.15;5.35;;;10.20;99.90;;;;;;4936127;29;20236;-76
2024/02/02 11:36:01;;;;;;;5.55;3.75;;;10.20;99.90;;;;;;4924028;29;20582;-76
2024/02/02 11:38:45;;;;;;;8.88;3.70;;;10.20;99.90;;;;;;4936216;29;20237;-76
2024/02/02 11:41:19;;;;;;;8.43;4.13;;;10.10;99.90;;;;;;4937144;29;20231;-77
2024/02/02 11:43:53;;;;;;;4.97;4.10;;;10.20;99.90;;;;;;4936518;29;20228;-76
2024/02/02 11:46:26;;;;;;;10.65;4.68;;;10.30;99.90;;;;;;4936734;29;20225;-77
2024/02/02 11:49:05;;;;;;;8.23;4.35;;;10.30;99.90;;;;;;4936325;29;20225;-76
2024/02/02 11:51:37;;;;;;;9.70;5.18;;;10.40;99.90;;;;;;4931243;29;20225;-79
2024/02/02 11:54:12;;;;;;;6.88;4.82;;;10.40;99.90;;;;;;4935722;29;20688;-76
2024/02/02 11:56:43;;;;;;;9.52;4.97;;;10.50;99.90;;;;;;4936022;29;20228;-76
2024/02/02 11:59:16;;;;;;;9.65;5.43;;;10.50;99.90;;;;;;4935814;29;20280;-76
2024/02/02 12:01:57;;;;;;;10.77;5.20;;;10.50;99.90;;;;;;4935979;29;20687;-78
2024/02/02 12:04:37;;;;;;;8.40;5.22;;;10.60;99.90;;;;;;4936209;29;20239;-76
2024/02/02 12:07:18;;;;;;;4.53;4.22;;;10.60;99.90;;;;;;4936041;29;20228;-76
2024/02/02 12:09:49;;;;;;;8.80;4.30;;;10.60;99.90;;;;;;4935901;29;20224;-76
2024/02/02 12:12:22;;;;;;;8.93;5.25;;;10.70;99.90;;;;;;4935674;29;20628;-76
2024/02/02 12:14:54;;;;;;;13.25;5.43;;;10.70;99.90;;;;;;4935757;29;20312;-76
2024/02/02 12:17:21;;;;;;;9.15;5.20;;;10.60;99.90;;;;;;4936306;29;20221;-76
2024/02/02 12:19:48;;;;;;;9.55;4.50;;;10.70;99.90;;;;;;4935083;29;20287;-76
2024/02/02 12:22:17;;;;;;;15.30;6.40;;;10.70;99.90;;;;;;4935563;29;20248;-78
2024/02/02 12:24:45;;;;;;;9.77;5.85;;;10.70;99.90;;;;;;4935359;29;20224;-77
2024/02/02 12:27:12;;;;;;;10.57;6.50;;;10.70;99.90;;;;;;4936107;29;20675;-78
2024/02/02 12:29:39;;;;;;;12.50;6.63;;;10.70;99.90;;;;;;4936235;29;20225;-76
2024/02/02 12:32:07;;;;;;;18.02;6.68;;;10.70;99.90;;;;;;4935764;29;20564;-76
2024/02/02 12:34:34;;;;;;;8.82;6.00;;;10.60;99.90;;;;;;4935777;29;20224;-76
2024/02/02 12:37:01;;;;;;;12.60;6.13;;;10.70;99.90;;;;;;4935305;29;20312;-76
2024/02/02 12:39:31;;;;;;;8.93;4.80;;;10.70;99.90;;;;;;4936035;29;20686;-76
2024/02/02 12:41:58;;;;;;;11.25;6.28;;;10.80;99.90;;;;;;4935569;29;20300;-76
2024/02/02 12:44:26;;;;;;;12.20;4.70;;;10.70;99.90;;;;;;4935898;29;20228;-76
2024/02/02 12:46:54;;;;;;;9.32;5.20;;;10.70;99.90;;;;;;4935392;29;20583;-76
2024/02/02 12:49:22;;;;;;;7.95;4.65;;;10.70;99.90;;;;;;4935888;29;20307;-76
2024/02/02 12:51:49;;;;;;;8.02;4.45;;;10.70;99.90;;;;;;4936219;29;20687;-76
2024/02/02 12:54:16;;;;;;;12.25;4.70;;;10.70;99.90;;;;;;4935065;29;20252;-76
2024/02/02 12:56:45;;;;;;;10.63;5.97;;;10.70;99.90;;;;;;4935839;29;20317;-76
2024/02/02 12:59:17;;;;;;;7.18;4.32;;;10.70;99.90;;;;;;4935326;29;20231;-76
2024/02/02 13:01:45;;;;;;;13.20;4.82;;;10.60;99.90;;;;;;4935707;29;20680;-75
2024/02/02 13:04:14;;;;;;;11.18;5.60;;;10.60;99.90;;;;;;4935708;29;20225;-75
2024/02/02 13:06:41;;;;;;;11.27;5.75;;;10.60;99.90;;;;;;4938067;29;20229;-75
2024/02/02 13:09:17;;;;;;;11.05;5.57;;;10.50;99.90;;;;;;4938552;29;20251;-75